sensor_id;sensor_type;location;lat;lon;timestamp;pressure;altitude;pressure_sealevel;temperature;humidity
24825;BME280;12910;57.690;11.974;2023-05-02T00:01:13;100353.78;;;4.81;100.00
24825;BME280;12910;57.690;11.974;2023-05-02T00:03:39;100356.84;;;4.72;100.00
24825;BME280;12910;57.690;11.974;2023-05-02T00:06:06;100361.22;;;4.76;100.00
24825;BME280;12910;57.690;11.974;2023-05-02T00:08:31;100381.06;;;4.87;100.00
24825;BME280;12910;57.690;11.974;2023-05-02T00:10:56;100382.41;;;4.77;100.00
24825;BME280;12910;57.690;11.974;2023-05-02T00:13:22;100375.50;;;4.73;100.00
24825;BME280;12910;57.690;11.974;2023-05-02T00:15:47;100366.47;;;4.57;100.00
24825;BME280;12910;57.690;11.974;2023-05-02T00:18:13;100372.28;;;4.54;100.00
24825;BME280;12910;57.690;11.974;2023-05-02T00:20:41;100383.88;;;4.70;100.00
24825;BME280;12910;57.690;11.974;2023-05-02T00:23:06;100380.94;;;4.59;100.00
24825;BME280;12910;57.690;11.974;2023-05-02T00:25:32;100384.09;;;4.53;100.00
24825;BME280;12910;57.690;11.974;2023-05-02T00:27:57;100364.38;;;4.46;100.00
24825;BME280;12910;57.690;11.974;2023-05-02T00:30:22;100392.13;;;4.64;100.00
24825;BME280;12910;57.690;11.974;2023-05-02T00:32:48;100381.97;;;4.64;100.00
24825;BME280;12910;57.690;11.974;2023-05-02T00:35:13;100386.47;;;4.72;100.00
24825;BME280;12910;57.690;11.974;2023-05-02T00:37:39;100391.97;;;4.60;100.00
24825;BME280;12910;57.690;11.974;2023-05-02T00:40:05;100382.91;;;4.44;100.00
24825;BME280;12910;57.690;11.974;2023-05-02T00:42:32;100390.75;;;4.50;100.00
24825;BME280;12910;57.690;11.974;2023-05-02T00:45:00;100402.56;;;4.49;100.00
24825;BME280;12910;57.690;11.974;2023-05-02T00:47:25;100398.94;;;4.43;100.00
24825;BME280;12910;57.690;11.974;2023-05-02T00:49:51;100397.44;;;4.48;100.00
24825;BME280;12910;57.690;11.974;2023-05-02T00:52:17;100411.75;;;4.46;100.00
24825;BME280;12910;57.690;11.974;2023-05-02T00:54:42;100413.94;;;4.36;100.00
24825;BME280;12910;57.690;11.974;2023-05-02T00:57:08;100418.84;;;4.32;100.00
24825;BME280;12910;57.690;11.974;2023-05-02T00:59:34;100413.34;;;4.21;100.00
24825;BME280;12910;57.690;11.974;2023-05-02T01:04:48;100427.31;;;4.32;100.00
24825;BME280;12910;57.690;11.974;2023-05-02T01:10:20;100432.97;;;4.25;100.00
24825;BME280;12910;57.690;11.974;2023-05-02T01:15:37;100438.84;;;4.24;100.00
24825;BME280;12910;57.690;11.974;2023-05-02T01:18:04;100446.56;;;4.27;100.00
24825;BME280;12910;57.690;11.974;2023-05-02T01:20:32;100449.97;;;4.28;100.00
24825;BME280;12910;57.690;11.974;2023-05-02T01:23:05;100443.84;;;4.23;100.00
24825;BME280;12910;57.690;11.974;2023-05-02T01:29:00;100460.16;;;4.29;100.00
24825;BME280;12910;57.690;11.974;2023-05-02T01:31:37;100468.41;;;4.24;100.00
24825;BME280;12910;57.690;11.974;2023-05-02T01:34:06;100455.78;;;4.25;100.00
24825;BME280;12910;57.690;11.974;2023-05-02T01:36:35;100459.75;;;4.18;100.00
24825;BME280;12910;57.690;11.974;2023-05-02T01:39:03;100472.66;;;4.25;100.00
24825;BME280;12910;57.690;11.974;2023-05-02T01:41:31;100477.75;;;4.25;100.00
24825;BME280;12910;57.690;11.974;2023-05-02T01:43:58;100493.09;;;4.28;100.00
24825;BME280;12910;57.690;11.974;2023-05-02T01:46:36;100492.06;;;4.23;100.00
24825;BME280;12910;57.690;11.974;2023-05-02T01:49:05;100472.19;;;4.12;100.00
24825;BME280;12910;57.690;11.974;2023-05-02T01:51:32;100487.59;;;4.17;100.00
24825;BME280;12910;57.690;11.974;2023-05-02T01:54:02;100461.75;;;4.04;100.00
24825;BME280;12910;57.690;11.974;2023-05-02T01:56:31;100468.47;;;4.04;100.00
24825;BME280;12910;57.690;11.974;2023-05-02T01:58:58;100481.59;;;4.15;100.00
24825;BME280;12910;57.690;11.974;2023-05-02T02:01:25;100460.00;;;4.03;100.00
24825;BME280;12910;57.690;11.974;2023-05-02T02:03:56;100476.84;;;4.23;100.00
24825;BME280;12910;57.690;11.974;2023-05-02T02:06:23;100463.97;;;4.18;100.00
24825;BME280;12910;57.690;11.974;2023-05-02T02:08:49;100462.25;;;4.17;100.00
24825;BME280;12910;57.690;11.974;2023-05-02T02:11:17;100469.41;;;4.27;100.00
24825;BME280;12910;57.690;11.974;2023-05-02T02:13:48;100466.50;;;4.18;100.00
24825;BME280;12910;57.690;11.974;2023-05-02T02:16:24;100481.03;;;4.22;100.00
24825;BME280;12910;57.690;11.974;2023-05-02T02:18:53;100477.63;;;4.21;100.00
24825;BME280;12910;57.690;11.974;2023-05-02T02:21:22;100488.59;;;4.20;100.00
24825;BME280;12910;57.690;11.974;2023-05-02T02:23:52;100486.81;;;4.18;100.00
24825;BME280;12910;57.690;11.974;2023-05-02T02:26:20;100492.78;;;4.20;100.00
24825;BME280;12910;57.690;11.974;2023-05-02T02:28:46;100492.72;;;4.18;100.00
24825;BME280;12910;57.690;11.974;2023-05-02T02:31:12;100478.88;;;4.10;100.00
24825;BME280;12910;57.690;11.974;2023-05-02T02:33:37;100480.84;;;3.96;100.00
24825;BME280;12910;57.690;11.974;2023-05-02T02:36:13;100494.16;;;4.12;100.00
24825;BME280;12910;57.690;11.974;2023-05-02T02:38:49;100481.47;;;3.90;100.00
24825;BME280;12910;57.690;11.974;2023-05-02T02:41:23;100498.84;;;4.02;100.00
24825;BME280;12910;57.690;11.974;2023-05-02T02:44:12;100493.63;;;3.99;100.00
24825;BME280;12910;57.690;11.974;2023-05-02T02:52:28;100514.19;;;4.05;100.00
24825;BME280;12910;57.690;11.974;2023-05-02T02:54:59;100520.88;;;4.03;100.00
24825;BME280;12910;57.690;11.974;2023-05-02T02:58:11;100517.78;;;3.89;100.00
24825;BME280;12910;57.690;11.974;2023-05-02T03:00:39;100513.13;;;3.79;100.00
24825;BME280;12910;57.690;11.974;2023-05-02T03:03:06;100519.13;;;3.81;100.00
24825;BME280;12910;57.690;11.974;2023-05-02T03:05:32;100508.72;;;3.75;100.00
24825;BME280;12910;57.690;11.974;2023-05-02T03:07:58;100529.25;;;3.81;100.00
24825;BME280;12910;57.690;11.974;2023-05-02T03:10:25;100533.34;;;3.78;100.00
24825;BME280;12910;57.690;11.974;2023-05-02T03:12:50;100537.31;;;3.72;100.00
24825;BME280;12910;57.690;11.974;2023-05-02T03:18:03;100536.53;;;3.73;100.00
24825;BME280;12910;57.690;11.974;2023-05-02T03:20:28;100538.13;;;3.71;100.00
24825;BME280;12910;57.690;11.974;2023-05-02T03:22:54;100553.09;;;3.65;100.00
24825;BME280;12910;57.690;11.974;2023-05-02T03:25:19;100556.56;;;3.67;100.00
24825;BME280;12910;57.690;11.974;2023-05-02T03:27:44;100552.69;;;3.56;100.00
24825;BME280;12910;57.690;11.974;2023-05-02T03:30:10;100556.75;;;3.52;100.00
24825;BME280;12910;57.690;11.974;2023-05-02T03:32:35;100567.94;;;3.57;100.00
24825;BME280;12910;57.690;11.974;2023-05-02T03:35:01;100553.03;;;3.44;100.00
24825;BME280;12910;57.690;11.974;2023-05-02T03:37:26;100567.63;;;3.50;100.00
24825;BME280;12910;57.690;11.974;2023-05-02T03:39:53;100565.28;;;3.35;100.00
24825;BME280;12910;57.690;11.974;2023-05-02T03:42:20;100590.16;;;3.43;100.00
24825;BME280;12910;57.690;11.974;2023-05-02T03:44:46;100576.22;;;3.34;100.00
24825;BME280;12910;57.690;11.974;2023-05-02T03:47:11;100595.31;;;3.45;100.00
24825;BME280;12910;57.690;11.974;2023-05-02T03:49:38;100588.59;;;3.47;100.00
24825;BME280;12910;57.690;11.974;2023-05-02T03:52:04;100596.91;;;3.43;100.00
24825;BME280;12910;57.690;11.974;2023-05-02T03:54:32;100575.06;;;3.27;100.00
24825;BME280;12910;57.690;11.974;2023-05-02T03:56:58;100609.75;;;3.48;100.00
24825;BME280;12910;57.690;11.974;2023-05-02T03:59:23;100590.53;;;3.33;100.00
24825;BME280;12910;57.690;11.974;2023-05-02T04:01:49;100587.78;;;3.28;100.00
24825;BME280;12910;57.690;11.974;2023-05-02T04:04:15;100599.81;;;3.33;100.00
24825;BME280;12910;57.690;11.974;2023-05-02T04:06:40;100598.06;;;3.32;100.00
24825;BME280;12910;57.690;11.974;2023-05-02T04:09:06;100604.66;;;3.28;100.00
24825;BME280;12910;57.690;11.974;2023-05-02T04:11:32;100600.41;;;3.27;100.00
24825;BME280;12910;57.690;11.974;2023-05-02T04:13:58;100609.19;;;3.35;100.00
24825;BME280;12910;57.690;11.974;2023-05-02T04:16:24;100606.47;;;3.31;100.00
24825;BME280;12910;57.690;11.974;2023-05-02T04:18:49;100607.88;;;3.43;100.00
24825;BME280;12910;57.690;11.974;2023-05-02T04:21:14;100604.41;;;3.41;100.00
24825;BME280;12910;57.690;11.974;2023-05-02T04:23:40;100601.75;;;3.38;100.00
24825;BME280;12910;57.690;11.974;2023-05-02T04:26:05;100623.09;;;3.43;100.00
24825;BME280;12910;57.690;11.974;2023-05-02T04:28:31;100622.13;;;3.41;100.00
24825;BME280;12910;57.690;11.974;2023-05-02T04:30:56;100606.72;;;3.37;100.00
24825;BME280;12910;57.690;11.974;2023-05-02T04:33:22;100619.59;;;3.41;100.00
24825;BME280;12910;57.690;11.974;2023-05-02T04:35:48;100640.38;;;3.52;100.00
24825;BME280;12910;57.690;11.974;2023-05-02T04:38:13;100633.44;;;3.48;100.00
24825;BME280;12910;57.690;11.974;2023-05-02T04:40:39;100634.38;;;3.50;100.00
24825;BME280;12910;57.690;11.974;2023-05-02T04:43:04;100638.09;;;3.58;100.00
24825;BME280;12910;57.690;11.974;2023-05-02T04:45:30;100636.38;;;3.57;100.00
24825;BME280;12910;57.690;11.974;2023-05-02T04:47:56;100648.25;;;3.58;100.00
24825;BME280;12910;57.690;11.974;2023-05-02T04:50:22;100637.16;;;3.56;100.00
24825;BME280;12910;57.690;11.974;2023-05-02T04:52:47;100644.06;;;3.59;100.00
24825;BME280;12910;57.690;11.974;2023-05-02T04:55:12;100655.47;;;3.69;100.00
24825;BME280;12910;57.690;11.974;2023-05-02T04:57:38;100627.91;;;3.57;100.00
24825;BME280;12910;57.690;11.974;2023-05-02T05:00:04;100644.47;;;3.68;100.00
24825;BME280;12910;57.690;11.974;2023-05-02T05:02:30;100634.19;;;3.65;100.00
24825;BME280;12910;57.690;11.974;2023-05-02T05:04:55;100641.13;;;3.69;100.00
24825;BME280;12910;57.690;11.974;2023-05-02T05:07:21;100645.81;;;3.80;100.00
24825;BME280;12910;57.690;11.974;2023-05-02T05:09:46;100648.47;;;3.83;100.00
24825;BME280;12910;57.690;11.974;2023-05-02T05:12:11;100650.22;;;3.84;100.00
24825;BME280;12910;57.690;11.974;2023-05-02T05:14:37;100660.50;;;3.87;100.00
24825;BME280;12910;57.690;11.974;2023-05-02T05:17:02;100651.09;;;3.84;100.00
24825;BME280;12910;57.690;11.974;2023-05-02T05:19:28;100652.41;;;3.76;100.00
24825;BME280;12910;57.690;11.974;2023-05-02T05:21:53;100649.00;;;3.76;100.00
24825;BME280;12910;57.690;11.974;2023-05-02T05:24:19;100646.47;;;3.76;100.00
24825;BME280;12910;57.690;11.974;2023-05-02T05:26:44;100649.22;;;3.80;100.00
24825;BME280;12910;57.690;11.974;2023-05-02T05:29:09;100662.50;;;3.94;100.00
24825;BME280;12910;57.690;11.974;2023-05-02T05:31:35;100655.94;;;3.99;100.00
24825;BME280;12910;57.690;11.974;2023-05-02T05:34:01;100666.50;;;4.09;100.00
24825;BME280;12910;57.690;11.974;2023-05-02T05:36:28;100657.75;;;4.02;100.00
24825;BME280;12910;57.690;11.974;2023-05-02T05:38:54;100668.97;;;4.07;100.00
24825;BME280;12910;57.690;11.974;2023-05-02T05:41:21;100681.84;;;4.12;100.00
24825;BME280;12910;57.690;11.974;2023-05-02T05:43:46;100651.16;;;4.05;100.00
24825;BME280;12910;57.690;11.974;2023-05-02T05:46:11;100640.06;;;4.03;100.00
24825;BME280;12910;57.690;11.974;2023-05-02T05:48:37;100638.66;;;4.10;100.00
24825;BME280;12910;57.690;11.974;2023-05-02T05:51:05;100646.47;;;4.15;100.00
24825;BME280;12910;57.690;11.974;2023-05-02T05:53:31;100647.47;;;4.18;100.00
24825;BME280;12910;57.690;11.974;2023-05-02T05:55:57;100647.31;;;4.15;100.00
24825;BME280;12910;57.690;11.974;2023-05-02T05:58:23;100661.94;;;4.21;100.00
24825;BME280;12910;57.690;11.974;2023-05-02T06:00:48;100663.06;;;4.28;100.00
24825;BME280;12910;57.690;11.974;2023-05-02T06:03:15;100678.56;;;4.34;100.00
24825;BME280;12910;57.690;11.974;2023-05-02T06:05:41;100682.63;;;4.30;100.00
24825;BME280;12910;57.690;11.974;2023-05-02T06:08:06;100678.34;;;4.29;100.00
24825;BME280;12910;57.690;11.974;2023-05-02T06:10:32;100672.09;;;4.21;100.00
24825;BME280;12910;57.690;11.974;2023-05-02T06:12:57;100676.38;;;4.22;100.00
24825;BME280;12910;57.690;11.974;2023-05-02T06:15:23;100677.56;;;4.30;100.00
24825;BME280;12910;57.690;11.974;2023-05-02T06:17:51;100678.44;;;4.31;100.00
24825;BME280;12910;57.690;11.974;2023-05-02T06:20:17;100691.38;;;4.37;100.00
24825;BME280;12910;57.690;11.974;2023-05-02T06:22:42;100689.31;;;4.28;100.00
24825;BME280;12910;57.690;11.974;2023-05-02T06:25:08;100691.78;;;4.27;100.00
24825;BME280;12910;57.690;11.974;2023-05-02T06:27:33;100692.28;;;4.18;100.00
24825;BME280;12910;57.690;11.974;2023-05-02T06:29:59;100710.13;;;4.41;100.00
24825;BME280;12910;57.690;11.974;2023-05-02T06:32:24;100702.47;;;4.39;100.00
24825;BME280;12910;57.690;11.974;2023-05-02T06:34:53;100717.19;;;4.48;100.00
24825;BME280;12910;57.690;11.974;2023-05-02T06:37:19;100715.78;;;4.55;100.00
24825;BME280;12910;57.690;11.974;2023-05-02T06:39:45;100716.34;;;4.47;100.00
24825;BME280;12910;57.690;11.974;2023-05-02T06:42:10;100718.47;;;4.58;100.00
24825;BME280;12910;57.690;11.974;2023-05-02T06:44:36;100735.09;;;4.71;100.00
24825;BME280;12910;57.690;11.974;2023-05-02T06:47:03;100739.75;;;4.81;100.00
24825;BME280;12910;57.690;11.974;2023-05-02T06:49:30;100731.00;;;4.74;100.00
24825;BME280;12910;57.690;11.974;2023-05-02T06:51:56;100724.19;;;4.73;100.00
24825;BME280;12910;57.690;11.974;2023-05-02T06:54:22;100730.88;;;4.71;100.00
24825;BME280;12910;57.690;11.974;2023-05-02T06:56:47;100726.91;;;4.78;100.00
24825;BME280;12910;57.690;11.974;2023-05-02T06:59:12;100727.66;;;4.75;100.00
24825;BME280;12910;57.690;11.974;2023-05-02T07:01:41;100717.63;;;4.78;100.00
24825;BME280;12910;57.690;11.974;2023-05-02T07:04:06;100738.72;;;4.97;100.00
24825;BME280;12910;57.690;11.974;2023-05-02T07:06:31;100712.94;;;4.88;100.00
24825;BME280;12910;57.690;11.974;2023-05-02T07:08:57;100743.00;;;4.98;100.00
24825;BME280;12910;57.690;11.974;2023-05-02T07:11:23;100731.13;;;4.98;100.00
24825;BME280;12910;57.690;11.974;2023-05-02T07:13:49;100752.22;;;5.17;100.00
24825;BME280;12910;57.690;11.974;2023-05-02T07:16:15;100730.75;;;5.10;100.00
24825;BME280;12910;57.690;11.974;2023-05-02T07:18:41;100749.00;;;5.21;100.00
24825;BME280;12910;57.690;11.974;2023-05-02T07:21:07;100742.84;;;5.16;100.00
24825;BME280;12910;57.690;11.974;2023-05-02T07:23:33;100750.13;;;5.28;100.00
24825;BME280;12910;57.690;11.974;2023-05-02T07:25:58;100751.19;;;5.35;100.00
24825;BME280;12910;57.690;11.974;2023-05-02T07:28:24;100747.66;;;5.31;100.00
24825;BME280;12910;57.690;11.974;2023-05-02T07:30:49;100748.75;;;5.36;100.00
24825;BME280;12910;57.690;11.974;2023-05-02T07:33:15;100747.13;;;5.38;100.00
24825;BME280;12910;57.690;11.974;2023-05-02T07:35:40;100756.63;;;5.44;100.00
24825;BME280;12910;57.690;11.974;2023-05-02T07:38:06;100753.06;;;5.39;100.00
24825;BME280;12910;57.690;11.974;2023-05-02T07:40:31;100739.78;;;5.46;100.00
24825;BME280;12910;57.690;11.974;2023-05-02T07:42:59;100756.19;;;5.54;100.00
24825;BME280;12910;57.690;11.974;2023-05-02T07:45:25;100769.25;;;5.64;100.00
24825;BME280;12910;57.690;11.974;2023-05-02T07:47:50;100780.81;;;5.76;100.00
24825;BME280;12910;57.690;11.974;2023-05-02T07:50:16;100766.03;;;5.68;100.00
24825;BME280;12910;57.690;11.974;2023-05-02T07:52:41;100767.16;;;5.74;100.00
24825;BME280;12910;57.690;11.974;2023-05-02T07:55:07;100779.25;;;5.80;100.00
24825;BME280;12910;57.690;11.974;2023-05-02T07:57:33;100767.19;;;5.76;100.00
24825;BME280;12910;57.690;11.974;2023-05-02T07:59:58;100774.44;;;5.88;100.00
24825;BME280;12910;57.690;11.974;2023-05-02T08:02:24;100784.78;;;5.92;100.00
24825;BME280;12910;57.690;11.974;2023-05-02T08:04:50;100789.19;;;5.97;100.00
24825;BME280;12910;57.690;11.974;2023-05-02T08:07:16;100797.06;;;6.03;100.00
24825;BME280;12910;57.690;11.974;2023-05-02T08:09:41;100793.03;;;5.87;100.00
24825;BME280;12910;57.690;11.974;2023-05-02T08:12:07;100786.00;;;6.01;100.00
24825;BME280;12910;57.690;11.974;2023-05-02T08:14:32;100787.19;;;6.11;100.00
24825;BME280;12910;57.690;11.974;2023-05-02T08:16:59;100785.22;;;6.03;100.00
24825;BME280;12910;57.690;11.974;2023-05-02T08:19:24;100828.19;;;6.18;100.00
24825;BME280;12910;57.690;11.974;2023-05-02T08:21:49;100810.94;;;6.11;100.00
24825;BME280;12910;57.690;11.974;2023-05-02T08:24:15;100821.72;;;6.04;100.00
24825;BME280;12910;57.690;11.974;2023-05-02T08:26:40;100827.25;;;6.16;100.00
24825;BME280;12910;57.690;11.974;2023-05-02T08:29:06;100806.72;;;6.12;100.00
24825;BME280;12910;57.690;11.974;2023-05-02T08:31:32;100818.56;;;6.11;100.00
24825;BME280;12910;57.690;11.974;2023-05-02T08:33:58;100841.13;;;6.24;100.00
24825;BME280;12910;57.690;11.974;2023-05-02T08:36:23;100816.09;;;6.13;100.00
24825;BME280;12910;57.690;11.974;2023-05-02T08:38:49;100836.69;;;6.19;100.00
24825;BME280;12910;57.690;11.974;2023-05-02T08:41:18;100815.34;;;6.15;100.00
24825;BME280;12910;57.690;11.974;2023-05-02T08:43:46;100837.75;;;6.24;100.00
24825;BME280;12910;57.690;11.974;2023-05-02T08:46:15;100830.50;;;6.12;100.00
24825;BME280;12910;57.690;11.974;2023-05-02T08:48:42;100848.31;;;6.35;100.00
24825;BME280;12910;57.690;11.974;2023-05-02T08:51:15;100834.38;;;6.25;100.00
24825;BME280;12910;57.690;11.974;2023-05-02T08:53:41;100868.09;;;6.42;100.00
24825;BME280;12910;57.690;11.974;2023-05-02T08:56:08;100868.69;;;6.35;100.00
24825;BME280;12910;57.690;11.974;2023-05-02T08:58:39;100864.22;;;6.29;100.00
24825;BME280;12910;57.690;11.974;2023-05-02T09:01:16;100868.00;;;6.39;100.00
24825;BME280;12910;57.690;11.974;2023-05-02T09:03:43;100860.53;;;6.44;100.00
24825;BME280;12910;57.690;11.974;2023-05-02T09:06:16;100870.03;;;6.49;100.00
24825;BME280;12910;57.690;11.974;2023-05-02T09:08:44;100862.66;;;6.55;100.00
24825;BME280;12910;57.690;11.974;2023-05-02T09:11:11;100868.84;;;6.62;100.00
24825;BME280;12910;57.690;11.974;2023-05-02T09:13:42;100883.53;;;6.69;100.00
24825;BME280;12910;57.690;11.974;2023-05-02T09:16:16;100883.34;;;6.65;100.00
24825;BME280;12910;57.690;11.974;2023-05-02T09:18:42;100885.25;;;6.70;100.00
24825;BME280;12910;57.690;11.974;2023-05-02T09:21:10;100883.34;;;6.65;100.00
24825;BME280;12910;57.690;11.974;2023-05-02T09:28:52;100890.72;;;6.81;100.00
24825;BME280;12910;57.690;11.974;2023-05-02T09:31:22;100907.88;;;6.85;100.00
24825;BME280;12910;57.690;11.974;2023-05-02T09:33:50;100887.03;;;6.73;100.00
24825;BME280;12910;57.690;11.974;2023-05-02T09:36:17;100898.25;;;6.78;100.00
24825;BME280;12910;57.690;11.974;2023-05-02T09:38:46;100911.22;;;6.84;100.00
24825;BME280;12910;57.690;11.974;2023-05-02T09:41:11;100909.50;;;6.83;100.00
24825;BME280;12910;57.690;11.974;2023-05-02T09:43:37;100899.66;;;6.70;100.00
24825;BME280;12910;57.690;11.974;2023-05-02T09:46:08;100918.88;;;6.84;100.00
24825;BME280;12910;57.690;11.974;2023-05-02T09:51:17;100926.44;;;6.83;100.00
24825;BME280;12910;57.690;11.974;2023-05-02T09:53:43;100940.41;;;6.93;100.00
24825;BME280;12910;57.690;11.974;2023-05-02T09:56:09;100920.28;;;6.76;100.00
24825;BME280;12910;57.690;11.974;2023-05-02T09:58:35;100925.63;;;6.84;100.00
24825;BME280;12910;57.690;11.974;2023-05-02T10:01:01;100918.59;;;6.77;100.00
24825;BME280;12910;57.690;11.974;2023-05-02T10:03:27;100949.19;;;7.01;100.00
24825;BME280;12910;57.690;11.974;2023-05-02T10:05:54;100948.22;;;6.97;100.00
24825;BME280;12910;57.690;11.974;2023-05-02T10:08:21;100945.94;;;7.05;100.00
24825;BME280;12910;57.690;11.974;2023-05-02T10:10:53;100955.53;;;7.12;100.00
24825;BME280;12910;57.690;11.974;2023-05-02T10:13:20;100957.75;;;7.03;100.00
24825;BME280;12910;57.690;11.974;2023-05-02T10:16:05;100933.44;;;6.89;100.00
24825;BME280;12910;57.690;11.974;2023-05-02T10:21:15;100980.50;;;6.97;100.00
24825;BME280;12910;57.690;11.974;2023-05-02T10:23:43;100966.44;;;7.08;100.00
24825;BME280;12910;57.690;11.974;2023-05-02T10:26:13;100966.56;;;7.11;100.00
24825;BME280;12910;57.690;11.974;2023-05-02T10:28:40;100982.06;;;7.17;100.00
24825;BME280;12910;57.690;11.974;2023-05-02T10:31:09;100969.91;;;7.10;100.00
24825;BME280;12910;57.690;11.974;2023-05-02T10:33:35;100960.44;;;7.06;100.00
24825;BME280;12910;57.690;11.974;2023-05-02T10:36:02;100975.81;;;7.09;100.00
24825;BME280;12910;57.690;11.974;2023-05-02T10:38:28;100970.06;;;6.91;100.00
24825;BME280;12910;57.690;11.974;2023-05-02T10:41:00;100968.25;;;7.11;100.00
24825;BME280;12910;57.690;11.974;2023-05-02T10:43:31;100987.06;;;7.14;100.00
24825;BME280;12910;57.690;11.974;2023-05-02T10:45:58;100985.16;;;7.09;100.00
24825;BME280;12910;57.690;11.974;2023-05-02T10:48:25;100980.16;;;7.12;100.00
24825;BME280;12910;57.690;11.974;2023-05-02T10:50:56;101014.72;;;7.28;100.00
24825;BME280;12910;57.690;11.974;2023-05-02T10:53:35;100997.44;;;7.19;100.00
24825;BME280;12910;57.690;11.974;2023-05-02T10:56:19;101001.97;;;7.28;100.00
24825;BME280;12910;57.690;11.974;2023-05-02T10:58:47;101003.47;;;7.21;100.00
24825;BME280;12910;57.690;11.974;2023-05-02T11:03:56;100995.69;;;7.18;100.00
24825;BME280;12910;57.690;11.974;2023-05-02T11:06:26;100986.34;;;7.18;100.00
24825;BME280;12910;57.690;11.974;2023-05-02T11:08:52;101012.66;;;7.17;100.00
24825;BME280;12910;57.690;11.974;2023-05-02T11:11:37;101019.47;;;7.18;100.00
24825;BME280;12910;57.690;11.974;2023-05-02T11:14:03;101021.31;;;7.21;100.00
24825;BME280;12910;57.690;11.974;2023-05-02T11:19:24;101032.63;;;7.29;100.00
24825;BME280;12910;57.690;11.974;2023-05-02T11:21:50;101012.75;;;7.21;100.00
24825;BME280;12910;57.690;11.974;2023-05-02T11:24:37;101053.91;;;7.30;100.00
24825;BME280;12910;57.690;11.974;2023-05-02T11:30:07;101039.78;;;7.15;100.00
24825;BME280;12910;57.690;11.974;2023-05-02T11:35:21;101053.78;;;7.27;100.00
24825;BME280;12910;57.690;11.974;2023-05-02T11:38:06;101046.06;;;7.25;100.00
24825;BME280;12910;57.690;11.974;2023-05-02T11:40:31;101021.00;;;7.13;100.00
24825;BME280;12910;57.690;11.974;2023-05-02T11:42:58;101050.06;;;7.41;100.00
24825;BME280;12910;57.690;11.974;2023-05-02T11:45:34;101047.47;;;7.40;100.00
24825;BME280;12910;57.690;11.974;2023-05-02T11:48:10;101054.22;;;7.39;100.00
24825;BME280;12910;57.690;11.974;2023-05-02T11:50:51;101051.06;;;7.46;100.00
24825;BME280;12910;57.690;11.974;2023-05-02T11:53:22;101043.38;;;7.45;100.00
24825;BME280;12910;57.690;11.974;2023-05-02T11:55:56;101058.91;;;7.51;100.00
24825;BME280;12910;57.690;11.974;2023-05-02T11:58:25;101060.72;;;7.54;100.00
24825;BME280;12910;57.690;11.974;2023-05-02T12:00:56;101045.13;;;7.46;100.00
24825;BME280;12910;57.690;11.974;2023-05-02T12:05:51;101044.47;;;7.52;100.00
24825;BME280;12910;57.690;11.974;2023-05-02T12:08:27;101088.38;;;7.67;100.00
24825;BME280;12910;57.690;11.974;2023-05-02T12:10:54;101090.28;;;7.73;99.65
24825;BME280;12910;57.690;11.974;2023-05-02T12:13:24;101090.72;;;7.85;95.74
24825;BME280;12910;57.690;11.974;2023-05-02T12:15:52;101105.91;;;7.82;88.31
24825;BME280;12910;57.690;11.974;2023-05-02T12:18:20;101080.50;;;7.61;89.81
24825;BME280;12910;57.690;11.974;2023-05-02T12:20:48;101097.06;;;7.72;93.64
24825;BME280;12910;57.690;11.974;2023-05-02T12:23:14;101086.44;;;7.60;78.97
24825;BME280;12910;57.690;11.974;2023-05-02T12:25:41;101081.38;;;7.61;79.64
24825;BME280;12910;57.690;11.974;2023-05-02T12:28:08;101106.47;;;7.73;93.09
24825;BME280;12910;57.690;11.974;2023-05-02T12:30:35;101087.88;;;7.77;95.12
24825;BME280;12910;57.690;11.974;2023-05-02T12:33:02;101092.66;;;7.92;95.03
24825;BME280;12910;57.690;11.974;2023-05-02T12:35:29;101098.97;;;8.02;95.88
24825;BME280;12910;57.690;11.974;2023-05-02T12:38:07;101090.38;;;8.00;93.94
24825;BME280;12910;57.690;11.974;2023-05-02T12:40:33;101107.06;;;7.90;95.82
24825;BME280;12910;57.690;11.974;2023-05-02T12:43:00;101103.59;;;7.88;90.14
24825;BME280;12910;57.690;11.974;2023-05-02T12:45:28;101101.25;;;7.94;90.12
24825;BME280;12910;57.690;11.974;2023-05-02T12:47:58;101109.06;;;7.99;94.39
24825;BME280;12910;57.690;11.974;2023-05-02T12:50:37;101094.44;;;7.95;97.95
24825;BME280;12910;57.690;11.974;2023-05-02T12:53:02;101118.78;;;8.09;100.00
24825;BME280;12910;57.690;11.974;2023-05-02T12:55:29;101119.41;;;8.02;98.01
24825;BME280;12910;57.690;11.974;2023-05-02T12:58:14;101108.78;;;7.91;99.53
24825;BME280;12910;57.690;11.974;2023-05-02T13:00:41;101110.03;;;8.03;100.00
24825;BME280;12910;57.690;11.974;2023-05-02T13:03:08;101105.03;;;8.06;100.00
24825;BME280;12910;57.690;11.974;2023-05-02T13:05:34;101121.00;;;8.24;100.00
24825;BME280;12910;57.690;11.974;2023-05-02T13:08:00;101118.38;;;8.23;99.69
24825;BME280;12910;57.690;11.974;2023-05-02T13:10:26;101118.63;;;8.05;100.00
24825;BME280;12910;57.690;11.974;2023-05-02T13:12:52;101112.94;;;8.14;99.53
24825;BME280;12910;57.690;11.974;2023-05-02T13:15:18;101110.03;;;8.03;95.54
24825;BME280;12910;57.690;11.974;2023-05-02T13:17:44;101112.28;;;8.19;100.00
24825;BME280;12910;57.690;11.974;2023-05-02T13:20:10;101112.50;;;8.25;98.80
24825;BME280;12910;57.690;11.974;2023-05-02T13:22:35;101141.50;;;8.27;100.00
24825;BME280;12910;57.690;11.974;2023-05-02T13:25:02;101125.56;;;8.09;100.00
24825;BME280;12910;57.690;11.974;2023-05-02T13:27:28;101126.63;;;8.16;100.00